sensor_id;sensor_type;location;lat;lon;timestamp;temperature;humidity
5621;DHT22;2832;50.864;12.186;2023-07-20T00:01:59;23.20;96.50
5621;DHT22;2832;50.864;12.186;2023-07-20T00:04:33;23.20;96.50
5621;DHT22;2832;50.864;12.186;2023-07-20T00:07:07;23.20;96.50
5621;DHT22;2832;50.864;12.186;2023-07-20T00:09:41;23.20;96.50
5621;DHT22;2832;50.864;12.186;2023-07-20T00:12:10;23.20;96.50
5621;DHT22;2832;50.864;12.186;2023-07-20T00:14:42;23.20;96.50
5621;DHT22;2832;50.864;12.186;2023-07-20T00:17:15;23.20;96.50
5621;DHT22;2832;50.864;12.186;2023-07-20T00:19:47;23.20;96.40
5621;DHT22;2832;50.864;12.186;2023-07-20T00:22:22;23.20;96.40
5621;DHT22;2832;50.864;12.186;2023-07-20T00:24:50;23.10;96.30
5621;DHT22;2832;50.864;12.186;2023-07-20T00:27:20;23.10;96.30
5621;DHT22;2832;50.864;12.186;2023-07-20T00:30:08;23.10;96.40
5621;DHT22;2832;50.864;12.186;2023-07-20T00:32:37;23.10;96.40
5621;DHT22;2832;50.864;12.186;2023-07-20T00:35:08;23.10;96.40
5621;DHT22;2832;50.864;12.186;2023-07-20T00:37:43;23.10;96.40
5621;DHT22;2832;50.864;12.186;2023-07-20T00:40:11;23.00;96.30
5621;DHT22;2832;50.864;12.186;2023-07-20T00:42:41;23.00;96.40
5621;DHT22;2832;50.864;12.186;2023-07-20T00:45:11;23.00;96.30
5621;DHT22;2832;50.864;12.186;2023-07-20T00:47:41;23.00;96.40
5621;DHT22;2832;50.864;12.186;2023-07-20T00:50:09;23.00;96.30
5621;DHT22;2832;50.864;12.186;2023-07-20T00:52:46;22.90;96.20
5621;DHT22;2832;50.864;12.186;2023-07-20T00:55:15;22.90;96.20
5621;DHT22;2832;50.864;12.186;2023-07-20T00:57:44;22.90;96.20
5621;DHT22;2832;50.864;12.186;2023-07-20T01:00:15;22.90;96.20
5621;DHT22;2832;50.864;12.186;2023-07-20T01:02:43;22.90;96.10
5621;DHT22;2832;50.864;12.186;2023-07-20T01:05:15;22.90;96.00
5621;DHT22;2832;50.864;12.186;2023-07-20T01:08:17;22.90;96.00
5621;DHT22;2832;50.864;12.186;2023-07-20T01:10:53;22.90;95.90
5621;DHT22;2832;50.864;12.186;2023-07-20T01:13:25;22.90;96.00
5621;DHT22;2832;50.864;12.186;2023-07-20T01:15:57;22.90;96.00
5621;DHT22;2832;50.864;12.186;2023-07-20T01:18:28;22.90;96.20
5621;DHT22;2832;50.864;12.186;2023-07-20T01:21:23;22.80;95.90
5621;DHT22;2832;50.864;12.186;2023-07-20T01:24:27;22.80;95.90
5621;DHT22;2832;50.864;12.186;2023-07-20T01:27:36;22.80;95.90
5621;DHT22;2832;50.864;12.186;2023-07-20T01:30:37;22.80;95.90
5621;DHT22;2832;50.864;12.186;2023-07-20T01:33:33;22.80;95.90
5621;DHT22;2832;50.864;12.186;2023-07-20T01:36:23;22.80;95.90
5621;DHT22;2832;50.864;12.186;2023-07-20T01:39:12;22.70;95.90
5621;DHT22;2832;50.864;12.186;2023-07-20T01:41:45;22.70;96.00
5621;DHT22;2832;50.864;12.186;2023-07-20T01:44:18;22.70;96.00
5621;DHT22;2832;50.864;12.186;2023-07-20T01:46:52;22.70;95.90
5621;DHT22;2832;50.864;12.186;2023-07-20T01:49:22;22.70;95.80
5621;DHT22;2832;50.864;12.186;2023-07-20T01:51:52;22.70;95.90
5621;DHT22;2832;50.864;12.186;2023-07-20T01:54:21;22.70;95.80
5621;DHT22;2832;50.864;12.186;2023-07-20T01:56:57;22.60;95.70
5621;DHT22;2832;50.864;12.186;2023-07-20T01:59:25;22.70;95.80
5621;DHT22;2832;50.864;12.186;2023-07-20T02:01:54;22.70;95.70
5621;DHT22;2832;50.864;12.186;2023-07-20T02:04:26;22.60;95.90
5621;DHT22;2832;50.864;12.186;2023-07-20T02:06:54;22.60;95.60
5621;DHT22;2832;50.864;12.186;2023-07-20T02:09:22;22.50;95.60
5621;DHT22;2832;50.864;12.186;2023-07-20T02:11:50;22.50;95.50
5621;DHT22;2832;50.864;12.186;2023-07-20T02:14:18;22.50;95.60
5621;DHT22;2832;50.864;12.186;2023-07-20T02:16:47;22.50;95.60
5621;DHT22;2832;50.864;12.186;2023-07-20T02:19:17;22.50;95.70
5621;DHT22;2832;50.864;12.186;2023-07-20T02:21:46;22.50;95.60
5621;DHT22;2832;50.864;12.186;2023-07-20T02:24:14;22.50;95.60
5621;DHT22;2832;50.864;12.186;2023-07-20T02:26:42;22.40;95.50
5621;DHT22;2832;50.864;12.186;2023-07-20T02:29:10;22.40;95.50
5621;DHT22;2832;50.864;12.186;2023-07-20T02:31:38;22.40;95.50
5621;DHT22;2832;50.864;12.186;2023-07-20T02:34:07;22.40;95.60
5621;DHT22;2832;50.864;12.186;2023-07-20T02:36:36;22.30;95.40
5621;DHT22;2832;50.864;12.186;2023-07-20T02:39:05;22.30;95.50
5621;DHT22;2832;50.864;12.186;2023-07-20T02:41:33;22.30;95.50
5621;DHT22;2832;50.864;12.186;2023-07-20T02:44:05;22.30;95.50
5621;DHT22;2832;50.864;12.186;2023-07-20T02:46:32;22.30;95.50
5621;DHT22;2832;50.864;12.186;2023-07-20T02:49:01;22.20;95.60
5621;DHT22;2832;50.864;12.186;2023-07-20T02:51:30;22.20;95.60
5621;DHT22;2832;50.864;12.186;2023-07-20T02:53:58;22.20;95.70
5621;DHT22;2832;50.864;12.186;2023-07-20T02:56:30;22.20;95.80
5621;DHT22;2832;50.864;12.186;2023-07-20T02:58:58;22.20;95.80
5621;DHT22;2832;50.864;12.186;2023-07-20T03:01:27;22.20;95.80
5621;DHT22;2832;50.864;12.186;2023-07-20T03:03:56;22.20;95.70
5621;DHT22;2832;50.864;12.186;2023-07-20T03:06:25;22.20;95.80
5621;DHT22;2832;50.864;12.186;2023-07-20T03:08:56;22.10;95.80
5621;DHT22;2832;50.864;12.186;2023-07-20T03:11:31;22.20;95.80
5621;DHT22;2832;50.864;12.186;2023-07-20T03:13:59;22.20;95.80
5621;DHT22;2832;50.864;12.186;2023-07-20T03:16:27;22.20;95.80
5621;DHT22;2832;50.864;12.186;2023-07-20T03:19:04;22.10;95.70
5621;DHT22;2832;50.864;12.186;2023-07-20T03:21:35;22.10;95.80
5621;DHT22;2832;50.864;12.186;2023-07-20T03:24:08;22.10;95.80
5621;DHT22;2832;50.864;12.186;2023-07-20T03:26:38;22.10;95.80
5621;DHT22;2832;50.864;12.186;2023-07-20T03:29:07;22.10;95.80
5621;DHT22;2832;50.864;12.186;2023-07-20T03:31:36;22.10;95.80
5621;DHT22;2832;50.864;12.186;2023-07-20T03:34:04;22.10;95.80
5621;DHT22;2832;50.864;12.186;2023-07-20T03:36:32;22.00;95.80
5621;DHT22;2832;50.864;12.186;2023-07-20T03:39:00;21.90;96.00
5621;DHT22;2832;50.864;12.186;2023-07-20T03:41:28;21.80;96.10
5621;DHT22;2832;50.864;12.186;2023-07-20T03:43:57;21.80;96.30
5621;DHT22;2832;50.864;12.186;2023-07-20T03:46:25;21.80;96.50
5621;DHT22;2832;50.864;12.186;2023-07-20T03:49:01;21.70;96.40
5621;DHT22;2832;50.864;12.186;2023-07-20T03:51:29;21.70;96.80
5621;DHT22;2832;50.864;12.186;2023-07-20T03:53:57;21.70;96.50
5621;DHT22;2832;50.864;12.186;2023-07-20T03:56:26;21.70;96.40
5621;DHT22;2832;50.864;12.186;2023-07-20T03:58:54;21.70;96.50
5621;DHT22;2832;50.864;12.186;2023-07-20T04:01:25;21.70;96.40
5621;DHT22;2832;50.864;12.186;2023-07-20T04:03:58;21.70;96.30
5621;DHT22;2832;50.864;12.186;2023-07-20T04:06:34;21.80;96.30
5621;DHT22;2832;50.864;12.186;2023-07-20T04:09:02;21.80;96.30
5621;DHT22;2832;50.864;12.186;2023-07-20T04:11:31;21.80;96.20
5621;DHT22;2832;50.864;12.186;2023-07-20T04:14:04;21.80;96.20
5621;DHT22;2832;50.864;12.186;2023-07-20T04:16:35;21.80;96.10
5621;DHT22;2832;50.864;12.186;2023-07-20T04:19:03;21.80;96.10
5621;DHT22;2832;50.864;12.186;2023-07-20T04:21:31;21.90;96.10
5621;DHT22;2832;50.864;12.186;2023-07-20T04:23:59;21.80;96.00
5621;DHT22;2832;50.864;12.186;2023-07-20T04:26:28;21.90;96.10
5621;DHT22;2832;50.864;12.186;2023-07-20T04:29:02;21.80;96.10
5621;DHT22;2832;50.864;12.186;2023-07-20T04:31:30;21.80;96.20
5621;DHT22;2832;50.864;12.186;2023-07-20T04:34:05;21.80;96.20
5621;DHT22;2832;50.864;12.186;2023-07-20T04:36:35;21.80;96.30
5621;DHT22;2832;50.864;12.186;2023-07-20T04:39:06;21.80;96.30
5621;DHT22;2832;50.864;12.186;2023-07-20T04:41:35;21.80;96.40
5621;DHT22;2832;50.864;12.186;2023-07-20T04:44:04;21.80;96.40
5621;DHT22;2832;50.864;12.186;2023-07-20T04:46:32;21.80;96.50
5621;DHT22;2832;50.864;12.186;2023-07-20T04:49:02;21.80;96.60
5621;DHT22;2832;50.864;12.186;2023-07-20T04:51:47;21.80;96.60
5621;DHT22;2832;50.864;12.186;2023-07-20T04:54:18;21.80;96.60
5621;DHT22;2832;50.864;12.186;2023-07-20T04:56:46;21.80;96.60
5621;DHT22;2832;50.864;12.186;2023-07-20T04:59:16;21.80;96.60
5621;DHT22;2832;50.864;12.186;2023-07-20T05:01:44;21.80;96.70
5621;DHT22;2832;50.864;12.186;2023-07-20T05:04:27;21.80;96.70
5621;DHT22;2832;50.864;12.186;2023-07-20T05:06:57;21.80;96.80
5621;DHT22;2832;50.864;12.186;2023-07-20T05:09:27;21.80;96.80
5621;DHT22;2832;50.864;12.186;2023-07-20T05:11:56;21.70;96.90
5621;DHT22;2832;50.864;12.186;2023-07-20T05:14:24;21.70;96.90
5621;DHT22;2832;50.864;12.186;2023-07-20T05:16:53;21.70;97.00
5621;DHT22;2832;50.864;12.186;2023-07-20T05:19:20;21.70;97.30
5621;DHT22;2832;50.864;12.186;2023-07-20T05:21:51;21.70;97.10
5621;DHT22;2832;50.864;12.186;2023-07-20T05:24:19;21.70;97.10
5621;DHT22;2832;50.864;12.186;2023-07-20T05:26:48;21.70;97.10
5621;DHT22;2832;50.864;12.186;2023-07-20T05:29:18;21.70;97.00
5621;DHT22;2832;50.864;12.186;2023-07-20T05:31:47;21.70;97.00
5621;DHT22;2832;50.864;12.186;2023-07-20T05:34:15;21.70;97.00
5621;DHT22;2832;50.864;12.186;2023-07-20T05:36:45;21.70;97.00
5621;DHT22;2832;50.864;12.186;2023-07-20T05:39:16;21.70;97.10
5621;DHT22;2832;50.864;12.186;2023-07-20T05:41:45;21.70;97.30
5621;DHT22;2832;50.864;12.186;2023-07-20T05:44:13;21.70;97.30
5621;DHT22;2832;50.864;12.186;2023-07-20T05:46:47;21.70;97.40
5621;DHT22;2832;50.864;12.186;2023-07-20T05:49:21;21.60;97.40
5621;DHT22;2832;50.864;12.186;2023-07-20T05:51:56;21.60;97.60
5621;DHT22;2832;50.864;12.186;2023-07-20T05:54:26;21.60;97.60
5621;DHT22;2832;50.864;12.186;2023-07-20T05:56:57;21.60;97.60
5621;DHT22;2832;50.864;12.186;2023-07-20T05:59:26;21.60;97.60
5621;DHT22;2832;50.864;12.186;2023-07-20T06:01:56;21.60;97.60
5621;DHT22;2832;50.864;12.186;2023-07-20T06:04:25;21.60;97.70
5621;DHT22;2832;50.864;12.186;2023-07-20T06:06:52;21.60;97.70
5621;DHT22;2832;50.864;12.186;2023-07-20T06:09:24;21.60;97.80
5621;DHT22;2832;50.864;12.186;2023-07-20T06:11:55;21.60;97.80
5621;DHT22;2832;50.864;12.186;2023-07-20T06:14:25;21.60;97.90
5621;DHT22;2832;50.864;12.186;2023-07-20T06:16:56;21.60;98.20
5621;DHT22;2832;50.864;12.186;2023-07-20T06:19:28;21.60;98.10
5621;DHT22;2832;50.864;12.186;2023-07-20T06:21:56;21.60;98.20
5621;DHT22;2832;50.864;12.186;2023-07-20T06:24:27;21.50;98.10
5621;DHT22;2832;50.864;12.186;2023-07-20T06:26:57;21.60;98.30
5621;DHT22;2832;50.864;12.186;2023-07-20T06:29:26;21.60;98.20
5621;DHT22;2832;50.864;12.186;2023-07-20T06:31:54;21.50;98.40
5621;DHT22;2832;50.864;12.186;2023-07-20T06:34:22;21.50;98.50
5621;DHT22;2832;50.864;12.186;2023-07-20T06:36:50;21.50;98.60
5621;DHT22;2832;50.864;12.186;2023-07-20T06:39:18;21.50;98.60
5621;DHT22;2832;50.864;12.186;2023-07-20T06:41:46;21.50;98.60
5621;DHT22;2832;50.864;12.186;2023-07-20T06:44:16;21.50;98.70
5621;DHT22;2832;50.864;12.186;2023-07-20T06:46:47;21.50;98.60
5621;DHT22;2832;50.864;12.186;2023-07-20T06:49:25;21.60;98.30
5621;DHT22;2832;50.864;12.186;2023-07-20T06:51:57;21.60;98.30
5621;DHT22;2832;50.864;12.186;2023-07-20T06:54:26;21.50;98.50
5621;DHT22;2832;50.864;12.186;2023-07-20T06:56:55;21.50;98.60
5621;DHT22;2832;50.864;12.186;2023-07-20T06:59:26;21.50;98.50
5621;DHT22;2832;50.864;12.186;2023-07-20T07:01:54;21.60;98.60
5621;DHT22;2832;50.864;12.186;2023-07-20T07:04:23;21.60;98.70
5621;DHT22;2832;50.864;12.186;2023-07-20T07:06:54;21.60;98.60
5621;DHT22;2832;50.864;12.186;2023-07-20T07:09:22;21.60;98.60
5621;DHT22;2832;50.864;12.186;2023-07-20T07:11:51;21.60;98.40
5621;DHT22;2832;50.864;12.186;2023-07-20T07:14:20;21.60;98.30
5621;DHT22;2832;50.864;12.186;2023-07-20T07:16:52;21.60;98.30
5621;DHT22;2832;50.864;12.186;2023-07-20T07:19:23;21.60;98.20
5621;DHT22;2832;50.864;12.186;2023-07-20T07:21:51;21.60;98.10
5621;DHT22;2832;50.864;12.186;2023-07-20T07:24:19;21.60;97.90
5621;DHT22;2832;50.864;12.186;2023-07-20T07:26:47;21.60;97.80
5621;DHT22;2832;50.864;12.186;2023-07-20T07:29:16;21.60;97.70
5621;DHT22;2832;50.864;12.186;2023-07-20T07:31:44;21.70;97.80
5621;DHT22;2832;50.864;12.186;2023-07-20T07:34:14;21.70;97.70
5621;DHT22;2832;50.864;12.186;2023-07-20T07:37:03;21.60;97.70
5621;DHT22;2832;50.864;12.186;2023-07-20T07:39:35;21.60;97.80
5621;DHT22;2832;50.864;12.186;2023-07-20T07:42:04;21.60;97.70
5621;DHT22;2832;50.864;12.186;2023-07-20T07:44:32;21.70;97.80
5621;DHT22;2832;50.864;12.186;2023-07-20T07:47:00;21.70;97.70
5621;DHT22;2832;50.864;12.186;2023-07-20T07:49:30;21.60;97.50
5621;DHT22;2832;50.864;12.186;2023-07-20T07:51:58;21.70;97.60
5621;DHT22;2832;50.864;12.186;2023-07-20T07:54:28;21.70;97.60
5621;DHT22;2832;50.864;12.186;2023-07-20T07:56:57;21.70;97.50
5621;DHT22;2832;50.864;12.186;2023-07-20T07:59:25;21.70;97.40
5621;DHT22;2832;50.864;12.186;2023-07-20T08:01:53;21.70;97.40
5621;DHT22;2832;50.864;12.186;2023-07-20T08:04:21;21.70;97.20
5621;DHT22;2832;50.864;12.186;2023-07-20T08:06:51;21.70;97.10
5621;DHT22;2832;50.864;12.186;2023-07-20T08:09:21;21.70;97.10
5621;DHT22;2832;50.864;12.186;2023-07-20T08:11:48;21.70;96.90
5621;DHT22;2832;50.864;12.186;2023-07-20T08:14:16;21.70;96.90
5621;DHT22;2832;50.864;12.186;2023-07-20T08:16:46;21.80;96.90
5621;DHT22;2832;50.864;12.186;2023-07-20T08:19:14;21.80;96.70
5621;DHT22;2832;50.864;12.186;2023-07-20T08:21:47;21.80;96.80
5621;DHT22;2832;50.864;12.186;2023-07-20T08:24:25;21.80;96.80
5621;DHT22;2832;50.864;12.186;2023-07-20T08:26:59;21.70;96.40
5621;DHT22;2832;50.864;12.186;2023-07-20T08:29:45;21.70;96.30
5621;DHT22;2832;50.864;12.186;2023-07-20T08:32:21;21.70;95.90
5621;DHT22;2832;50.864;12.186;2023-07-20T08:34:58;21.70;95.80
5621;DHT22;2832;50.864;12.186;2023-07-20T08:37:36;21.70;96.00
5621;DHT22;2832;50.864;12.186;2023-07-20T08:40:08;21.70;95.90
5621;DHT22;2832;50.864;12.186;2023-07-20T08:42:43;21.60;96.10
5621;DHT22;2832;50.864;12.186;2023-07-20T08:45:16;21.60;96.10
5621;DHT22;2832;50.864;12.186;2023-07-20T08:47:56;21.70;96.20
5621;DHT22;2832;50.864;12.186;2023-07-20T08:50:30;21.70;96.00
5621;DHT22;2832;50.864;12.186;2023-07-20T08:52:58;21.60;95.90
5621;DHT22;2832;50.864;12.186;2023-07-20T08:55:32;21.70;95.80
5621;DHT22;2832;50.864;12.186;2023-07-20T08:58:07;21.70;95.80
5621;DHT22;2832;50.864;12.186;2023-07-20T09:00:45;21.60;95.70
5621;DHT22;2832;50.864;12.186;2023-07-20T09:03:18;21.70;95.50
5621;DHT22;2832;50.864;12.186;2023-07-20T09:05:46;21.60;95.20
5621;DHT22;2832;50.864;12.186;2023-07-20T09:08:15;21.60;95.10
5621;DHT22;2832;50.864;12.186;2023-07-20T09:10:44;21.60;95.20
5621;DHT22;2832;50.864;12.186;2023-07-20T09:13:15;21.60;95.30
5621;DHT22;2832;50.864;12.186;2023-07-20T09:15:53;21.60;95.40
5621;DHT22;2832;50.864;12.186;2023-07-20T09:18:24;21.70;95.30
5621;DHT22;2832;50.864;12.186;2023-07-20T09:20:59;21.70;95.20
5621;DHT22;2832;50.864;12.186;2023-07-20T09:23:35;21.70;95.10
5621;DHT22;2832;50.864;12.186;2023-07-20T09:26:11;21.70;94.80
5621;DHT22;2832;50.864;12.186;2023-07-20T09:28:47;21.70;94.80
5621;DHT22;2832;50.864;12.186;2023-07-20T09:31:17;21.70;94.70
5621;DHT22;2832;50.864;12.186;2023-07-20T09:33:46;21.70;94.80
5621;DHT22;2832;50.864;12.186;2023-07-20T09:36:17;21.60;94.80
5621;DHT22;2832;50.864;12.186;2023-07-20T09:38:46;21.60;95.00
5621;DHT22;2832;50.864;12.186;2023-07-20T09:41:15;21.60;95.00
5621;DHT22;2832;50.864;12.186;2023-07-20T09:43:45;21.60;95.00
5621;DHT22;2832;50.864;12.186;2023-07-20T09:46:13;21.60;95.10
5621;DHT22;2832;50.864;12.186;2023-07-20T09:48:51;21.70;95.10
5621;DHT22;2832;50.864;12.186;2023-07-20T09:51:23;21.70;95.20
5621;DHT22;2832;50.864;12.186;2023-07-20T09:53:52;21.70;95.60
5621;DHT22;2832;50.864;12.186;2023-07-20T09:56:32;21.70;95.30
5621;DHT22;2832;50.864;12.186;2023-07-20T09:59:06;21.80;95.30
5621;DHT22;2832;50.864;12.186;2023-07-20T10:01:35;21.80;95.20
5621;DHT22;2832;50.864;12.186;2023-07-20T10:04:12;21.80;95.20
5621;DHT22;2832;50.864;12.186;2023-07-20T10:06:50;21.80;95.10
5621;DHT22;2832;50.864;12.186;2023-07-20T10:09:24;21.80;95.00
5621;DHT22;2832;50.864;12.186;2023-07-20T10:11:59;21.80;95.20
5621;DHT22;2832;50.864;12.186;2023-07-20T10:14:30;21.80;95.50
5621;DHT22;2832;50.864;12.186;2023-07-20T10:17:02;21.80;95.60
5621;DHT22;2832;50.864;12.186;2023-07-20T10:19:38;21.80;95.70
5621;DHT22;2832;50.864;12.186;2023-07-20T10:22:14;21.80;95.70
5621;DHT22;2832;50.864;12.186;2023-07-20T10:24:45;21.90;95.70
5621;DHT22;2832;50.864;12.186;2023-07-20T10:27:22;21.90;95.70
5621;DHT22;2832;50.864;12.186;2023-07-20T10:29:52;21.90;95.40
5621;DHT22;2832;50.864;12.186;2023-07-20T10:32:23;22.00;95.30
5621;DHT22;2832;50.864;12.186;2023-07-20T10:34:52;22.00;95.30
5621;DHT22;2832;50.864;12.186;2023-07-20T10:37:49;22.00;95.30
5621;DHT22;2832;50.864;12.186;2023-07-20T10:40:40;22.00;95.10
5621;DHT22;2832;50.864;12.186;2023-07-20T10:43:20;22.00;95.30
5621;DHT22;2832;50.864;12.186;2023-07-20T10:45:54;22.10;95.00
5621;DHT22;2832;50.864;12.186;2023-07-20T10:48:22;22.10;95.10
5621;DHT22;2832;50.864;12.186;2023-07-20T10:51:12;22.10;94.70
5621;DHT22;2832;50.864;12.186;2023-07-20T10:53:44;22.10;95.20
5621;DHT22;2832;50.864;12.186;2023-07-20T10:56:13;22.10;94.80
5621;DHT22;2832;50.864;12.186;2023-07-20T10:58:44;22.20;94.70
5621;DHT22;2832;50.864;12.186;2023-07-20T11:01:16;22.10;95.50
5621;DHT22;2832;50.864;12.186;2023-07-20T11:03:50;22.00;96.40
5621;DHT22;2832;50.864;12.186;2023-07-20T11:06:36;21.90;97.00
5621;DHT22;2832;50.864;12.186;2023-07-20T11:09:10;21.90;97.20
5621;DHT22;2832;50.864;12.186;2023-07-20T11:11:44;21.90;97.30
5621;DHT22;2832;50.864;12.186;2023-07-20T11:14:27;21.90;97.40
5621;DHT22;2832;50.864;12.186;2023-07-20T11:17:11;22.00;97.60
5621;DHT22;2832;50.864;12.186;2023-07-20T11:19:43;22.00;97.50
5621;DHT22;2832;50.864;12.186;2023-07-20T11:22:17;22.00;97.70
5621;DHT22;2832;50.864;12.186;2023-07-20T11:24:49;22.00;98.20
5621;DHT22;2832;50.864;12.186;2023-07-20T11:27:19;22.10;98.10
5621;DHT22;2832;50.864;12.186;2023-07-20T11:29:52;22.10;98.00
5621;DHT22;2832;50.864;12.186;2023-07-20T11:32:22;22.00;98.10
5621;DHT22;2832;50.864;12.186;2023-07-20T11:34:54;22.00;98.10
5621;DHT22;2832;50.864;12.186;2023-07-20T11:37:29;22.00;98.00
5621;DHT22;2832;50.864;12.186;2023-07-20T11:40:09;22.00;98.00
5621;DHT22;2832;50.864;12.186;2023-07-20T11:42:39;22.00;98.10
5621;DHT22;2832;50.864;12.186;2023-07-20T11:45:20;22.10;98.00
5621;DHT22;2832;50.864;12.186;2023-07-20T11:47:59;22.10;98.10
5621;DHT22;2832;50.864;12.186;2023-07-20T11:50:31;22.10;98.10
5621;DHT22;2832;50.864;12.186;2023-07-20T11:53:09;22.10;98.00
5621;DHT22;2832;50.864;12.186;2023-07-20T11:55:43;22.10;97.80
5621;DHT22;2832;50.864;12.186;2023-07-20T11:58:20;22.10;97.70
5621;DHT22;2832;50.864;12.186;2023-07-20T12:01:02;22.10;97.80
5621;DHT22;2832;50.864;12.186;2023-07-20T12:03:37;22.00;98.00
5621;DHT22;2832;50.864;12.186;2023-07-20T12:06:08;22.10;98.30
5621;DHT22;2832;50.864;12.186;2023-07-20T12:08:42;22.10;98.40
5621;DHT22;2832;50.864;12.186;2023-07-20T12:11:14;22.20;98.10
5621;DHT22;2832;50.864;12.186;2023-07-20T12:14:02;22.20;98.00
5621;DHT22;2832;50.864;12.186;2023-07-20T12:16:36;22.30;96.90
5621;DHT22;2832;50.864;12.186;2023-07-20T12:19:07;22.20;97.20
5621;DHT22;2832;50.864;12.186;2023-07-20T12:21:41;22.20;97.10
5621;DHT22;2832;50.864;12.186;2023-07-20T12:24:29;22.20;96.70
5621;DHT22;2832;50.864;12.186;2023-07-20T12:27:36;22.30;96.50
5621;DHT22;2832;50.864;12.186;2023-07-20T12:30:06;22.30;96.20
5621;DHT22;2832;50.864;12.186;2023-07-20T12:32:47;22.30;95.40
5621;DHT22;2832;50.864;12.186;2023-07-20T12:35:49;22.30;95.70
5621;DHT22;2832;50.864;12.186;2023-07-20T12:38:25;22.30;96.00
5621;DHT22;2832;50.864;12.186;2023-07-20T12:41:15;22.30;95.90
5621;DHT22;2832;50.864;12.186;2023-07-20T12:43:53;22.30;95.80
5621;DHT22;2832;50.864;12.186;2023-07-20T12:46:35;22.30;95.90
5621;DHT22;2832;50.864;12.186;2023-07-20T12:49:17;22.30;95.30
5621;DHT22;2832;50.864;12.186;2023-07-20T12:51:45;22.30;96.00
5621;DHT22;2832;50.864;12.186;2023-07-20T12:54:13;22.30;95.60
5621;DHT22;2832;50.864;12.186;2023-07-20T12:56:41;22.30;95.60
5621;DHT22;2832;50.864;12.186;2023-07-20T12:59:10;22.30;95.60
5621;DHT22;2832;50.864;12.186;2023-07-20T13:01:43;22.30;96.00
5621;DHT22;2832;50.864;12.186;2023-07-20T13:05:13;22.40;95.50
5621;DHT22;2832;50.864;12.186;2023-07-20T13:07:46;22.40;95.20
5621;DHT22;2832;50.864;12.186;2023-07-20T13:10:20;22.40;95.10
5621;DHT22;2832;50.864;12.186;2023-07-20T13:12:48;22.40;95.00
5621;DHT22;2832;50.864;12.186;2023-07-20T13:15:18;22.50;94.90
5621;DHT22;2832;50.864;12.186;2023-07-20T13:17:46;22.40;94.80
5621;DHT22;2832;50.864;12.186;2023-07-20T13:20:21;22.40;94.70
5621;DHT22;2832;50.864;12.186;2023-07-20T13:22:51;22.40;94.60
5621;DHT22;2832;50.864;12.186;2023-07-20T13:25:22;22.40;94.60
5621;DHT22;2832;50.864;12.186;2023-07-20T13:27:53;22.40;94.50
5621;DHT22;2832;50.864;12.186;2023-07-20T13:30:21;22.40;94.50
5621;DHT22;2832;50.864;12.186;2023-07-20T13:32:54;22.40;94.60
5621;DHT22;2832;50.864;12.186;2023-07-20T13:35:24;22.40;94.60
5621;DHT22;2832;50.864;12.186;2023-07-20T13:37:52;22.40;94.60
5621;DHT22;2832;50.864;12.186;2023-07-20T13:40:20;22.40;94.60
5621;DHT22;2832;50.864;12.186;2023-07-20T13:43:10;22.50;94.60
5621;DHT22;2832;50.864;12.186;2023-07-20T13:45:38;22.50;94.10
5621;DHT22;2832;50.864;12.186;2023-07-20T13:48:05;22.50;93.50
5621;DHT22;2832;50.864;12.186;2023-07-20T13:50:38;22.30;94.10
5621;DHT22;2832;50.864;12.186;2023-07-20T13:53:14;22.30;94.50
5621;DHT22;2832;50.864;12.186;2023-07-20T13:55:52;22.40;94.60
5621;DHT22;2832;50.864;12.186;2023-07-20T13:58:29;22.40;94.50
5621;DHT22;2832;50.864;12.186;2023-07-20T14:01:00;22.40;94.50
5621;DHT22;2832;50.864;12.186;2023-07-20T14:03:28;22.40;94.60
5621;DHT22;2832;50.864;12.186;2023-07-20T14:05:57;22.50;94.50
5621;DHT22;2832;50.864;12.186;2023-07-20T14:08:26;22.50;94.50
5621;DHT22;2832;50.864;12.186;2023-07-20T14:10:56;22.50;94.60
5621;DHT22;2832;50.864;12.186;2023-07-20T14:13:26;22.40;94.50
5621;DHT22;2832;50.864;12.186;2023-07-20T14:15:55;22.50;94.60
5621;DHT22;2832;50.864;12.186;2023-07-20T14:18:24;22.50;94.40
5621;DHT22;2832;50.864;12.186;2023-07-20T14:20:52;22.60;94.50
5621;DHT22;2832;50.864;12.186;2023-07-20T14:23:25;22.60;94.40
5621;DHT22;2832;50.864;12.186;2023-07-20T14:25:54;22.50;94.30
5621;DHT22;2832;50.864;12.186;2023-07-20T14:28:27;22.60;94.00
5621;DHT22;2832;50.864;12.186;2023-07-20T14:30:56;22.50;93.70
5621;DHT22;2832;50.864;12.186;2023-07-20T14:33:30;22.50;93.50
5621;DHT22;2832;50.864;12.186;2023-07-20T14:36:10;22.60;93.60
5621;DHT22;2832;50.864;12.186;2023-07-20T14:38:44;22.70;93.70
5621;DHT22;2832;50.864;12.186;2023-07-20T14:41:13;22.70;93.60
5621;DHT22;2832;50.864;12.186;2023-07-20T14:43:45;22.70;93.40
5621;DHT22;2832;50.864;12.186;2023-07-20T14:46:16;22.70;93.50
5621;DHT22;2832;50.864;12.186;2023-07-20T14:48:49;22.70;93.30
5621;DHT22;2832;50.864;12.186;2023-07-20T14:51:30;22.70;93.20
5621;DHT22;2832;50.864;12.186;2023-07-20T14:54:12;22.80;92.80
5621;DHT22;2832;50.864;12.186;2023-07-20T14:56:52;22.80;92.40
5621;DHT22;2832;50.864;12.186;2023-07-20T14:59:26;22.80;92.20
5621;DHT22;2832;50.864;12.186;2023-07-20T15:01:55;22.80;92.00
5621;DHT22;2832;50.864;12.186;2023-07-20T15:04:23;22.80;91.90
5621;DHT22;2832;50.864;12.186;2023-07-20T15:06:55;22.70;91.90
5621;DHT22;2832;50.864;12.186;2023-07-20T15:09:30;22.70;91.90
5621;DHT22;2832;50.864;12.186;2023-07-20T15:12:04;22.80;91.80
5621;DHT22;2832;50.864;12.186;2023-07-20T15:14:34;22.50;92.10
5621;DHT22;2832;50.864;12.186;2023-07-20T15:17:02;22.30;92.50
5621;DHT22;2832;50.864;12.186;2023-07-20T15:19:30;22.40;92.80
5621;DHT22;2832;50.864;12.186;2023-07-20T15:22:02;22.40;92.90
5621;DHT22;2832;50.864;12.186;2023-07-20T15:24:31;22.40;92.20
5621;DHT22;2832;50.864;12.186;2023-07-20T15:26:59;22.50;92.80
5621;DHT22;2832;50.864;12.186;2023-07-20T15:29:29;22.50;92.00
5621;DHT22;2832;50.864;12.186;2023-07-20T15:31:56;22.40;91.90
5621;DHT22;2832;50.864;12.186;2023-07-20T15:34:24;22.40;91.90
5621;DHT22;2832;50.864;12.186;2023-07-20T15:36:52;22.30;92.30
5621;DHT22;2832;50.864;12.186;2023-07-20T15:39:23;22.40;91.90
5621;DHT22;2832;50.864;12.186;2023-07-20T15:41:55;22.50;92.70
5621;DHT22;2832;50.864;12.186;2023-07-20T15:44:26;22.40;92.20
5621;DHT22;2832;50.864;12.186;2023-07-20T15:47:10;22.40;92.50
5621;DHT22;2832;50.864;12.186;2023-07-20T15:49:48;22.60;92.90
5621;DHT22;2832;50.864;12.186;2023-07-20T15:52:24;22.60;92.70
5621;DHT22;2832;50.864;12.186;2023-07-20T15:54:51;22.60;92.60
5621;DHT22;2832;50.864;12.186;2023-07-20T15:57:22;22.60;92.50
5621;DHT22;2832;50.864;12.186;2023-07-20T15:59:50;22.70;92.10
5621;DHT22;2832;50.864;12.186;2023-07-20T16:02:19;22.70;92.30
5621;DHT22;2832;50.864;12.186;2023-07-20T16:05:02;22.70;92.40
5621;DHT22;2832;50.864;12.186;2023-07-20T16:07:46;22.80;92.10
5621;DHT22;2832;50.864;12.186;2023-07-20T16:10:14;22.80;91.60
5621;DHT22;2832;50.864;12.186;2023-07-20T16:12:48;22.80;91.20
5621;DHT22;2832;50.864;12.186;2023-07-20T16:15:16;22.70;92.00
5621;DHT22;2832;50.864;12.186;2023-07-20T16:17:44;22.70;91.90
5621;DHT22;2832;50.864;12.186;2023-07-20T16:20:13;22.80;91.90